sensor_id;sensor_type;location;lat;lon;timestamp;pressure;altitude;pressure_sealevel;temperature;humidity
63439;BME280;49567;48.958;8.294;2022-10-16T00:01:13;100162.22;;;17.22;88.77
63439;BME280;49567;48.958;8.294;2022-10-16T00:03:40;100176.72;;;17.23;88.66
63439;BME280;49567;48.958;8.294;2022-10-16T00:06:06;100185.16;;;17.26;88.67
63439;BME280;49567;48.958;8.294;2022-10-16T00:08:33;100169.31;;;17.23;88.67
63439;BME280;49567;48.958;8.294;2022-10-16T00:11:00;100166.88;;;17.22;88.83
63439;BME280;49567;48.958;8.294;2022-10-16T00:13:25;100163.03;;;17.23;88.87
63439;BME280;49567;48.958;8.294;2022-10-16T00:15:55;100170.13;;;17.24;88.81
63439;BME280;49567;48.958;8.294;2022-10-16T00:18:21;100159.50;;;17.22;88.76
63439;BME280;49567;48.958;8.294;2022-10-16T00:20:46;100167.41;;;17.24;88.81
63439;BME280;49567;48.958;8.294;2022-10-16T00:23:11;100160.50;;;17.26;88.89
63439;BME280;49567;48.958;8.294;2022-10-16T00:25:36;100161.91;;;17.24;88.88
63439;BME280;49567;48.958;8.294;2022-10-16T00:28:02;100153.69;;;17.24;88.86
63439;BME280;49567;48.958;8.294;2022-10-16T00:30:27;100162.22;;;17.22;88.66
63439;BME280;49567;48.958;8.294;2022-10-16T00:32:53;100160.97;;;17.15;89.30
63439;BME280;49567;48.958;8.294;2022-10-16T00:35:18;100170.22;;;17.19;89.31
63439;BME280;49567;48.958;8.294;2022-10-16T00:37:43;100166.72;;;17.13;89.53
63439;BME280;49567;48.958;8.294;2022-10-16T00:40:09;100158.72;;;17.17;89.34
63439;BME280;49567;48.958;8.294;2022-10-16T00:42:34;100158.66;;;17.22;89.07
63439;BME280;49567;48.958;8.294;2022-10-16T00:45:00;100155.63;;;17.23;88.98
63439;BME280;49567;48.958;8.294;2022-10-16T00:47:41;100158.34;;;17.23;89.14
63439;BME280;49567;48.958;8.294;2022-10-16T00:50:16;100160.59;;;17.21;89.18
63439;BME280;49567;48.958;8.294;2022-10-16T00:52:46;100167.72;;;17.22;89.14
63439;BME280;49567;48.958;8.294;2022-10-16T00:55:12;100168.00;;;17.21;89.25
63439;BME280;49567;48.958;8.294;2022-10-16T00:57:38;100179.75;;;17.21;89.10
63439;BME280;49567;48.958;8.294;2022-10-16T01:00:06;100177.84;;;17.22;89.12
63439;BME280;49567;48.958;8.294;2022-10-16T01:02:32;100173.47;;;17.21;89.08
63439;BME280;49567;48.958;8.294;2022-10-16T01:04:57;100181.69;;;17.21;89.20
63439;BME280;49567;48.958;8.294;2022-10-16T01:15:41;100180.63;;;17.17;89.40
63439;BME280;49567;48.958;8.294;2022-10-16T01:18:13;100185.28;;;17.16;89.37
63439;BME280;49567;48.958;8.294;2022-10-16T01:20:51;100182.88;;;17.15;89.38
63439;BME280;49567;48.958;8.294;2022-10-16T01:23:30;100189.16;;;17.15;89.59
63439;BME280;49567;48.958;8.294;2022-10-16T01:28:40;100180.13;;;17.15;89.43
63439;BME280;49567;48.958;8.294;2022-10-16T01:31:07;100178.50;;;17.13;89.58
63439;BME280;49567;48.958;8.294;2022-10-16T01:33:43;100178.50;;;17.13;89.70
63439;BME280;49567;48.958;8.294;2022-10-16T01:36:21;100173.00;;;17.13;89.40
63439;BME280;49567;48.958;8.294;2022-10-16T01:38:49;100166.44;;;17.15;89.41
63439;BME280;49567;48.958;8.294;2022-10-16T01:41:24;100168.34;;;17.14;89.11
63439;BME280;49567;48.958;8.294;2022-10-16T01:43:58;100164.53;;;17.15;89.46
63439;BME280;49567;48.958;8.294;2022-10-16T01:46:26;100159.31;;;17.13;89.19
63439;BME280;49567;48.958;8.294;2022-10-16T01:48:52;100164.28;;;17.11;89.19
63439;BME280;49567;48.958;8.294;2022-10-16T01:51:19;100162.66;;;17.10;89.27
63439;BME280;49567;48.958;8.294;2022-10-16T01:53:49;100166.50;;;17.09;89.25
63439;BME280;49567;48.958;8.294;2022-10-16T01:56:17;100162.97;;;17.09;89.05
63439;BME280;49567;48.958;8.294;2022-10-16T01:58:53;100165.47;;;17.05;89.28
63439;BME280;49567;48.958;8.294;2022-10-16T02:01:22;100158.34;;;17.04;89.26
63439;BME280;49567;48.958;8.294;2022-10-16T02:03:51;100171.81;;;17.01;89.35
63439;BME280;49567;48.958;8.294;2022-10-16T02:06:18;100180.03;;;17.01;89.27
63439;BME280;49567;48.958;8.294;2022-10-16T02:08:43;100183.88;;;17.00;89.39
63439;BME280;49567;48.958;8.294;2022-10-16T02:11:09;100175.16;;;16.98;89.44
63439;BME280;49567;48.958;8.294;2022-10-16T02:13:43;100191.56;;;16.98;89.37
63439;BME280;49567;48.958;8.294;2022-10-16T02:16:11;100188.00;;;16.97;89.33
63439;BME280;49567;48.958;8.294;2022-10-16T02:18:38;100193.78;;;16.96;89.49
63439;BME280;49567;48.958;8.294;2022-10-16T02:21:16;100197.31;;;16.96;89.41
63439;BME280;49567;48.958;8.294;2022-10-16T02:23:51;100191.03;;;16.96;89.38
63439;BME280;49567;48.958;8.294;2022-10-16T02:26:39;100189.44;;;16.95;89.22
63439;BME280;49567;48.958;8.294;2022-10-16T02:29:08;100200.06;;;16.96;89.20
63439;BME280;49567;48.958;8.294;2022-10-16T02:31:39;100190.25;;;16.95;89.36
63439;BME280;49567;48.958;8.294;2022-10-16T02:34:06;100200.38;;;16.95;89.31
63439;BME280;49567;48.958;8.294;2022-10-16T02:36:34;100187.78;;;16.94;89.36
63439;BME280;49567;48.958;8.294;2022-10-16T02:39:02;100196.31;;;16.92;89.23
63439;BME280;49567;48.958;8.294;2022-10-16T02:41:29;100188.09;;;16.92;89.32
63439;BME280;49567;48.958;8.294;2022-10-16T02:43:54;100180.25;;;16.86;89.68
63439;BME280;49567;48.958;8.294;2022-10-16T02:46:20;100194.66;;;16.91;89.32
63439;BME280;49567;48.958;8.294;2022-10-16T02:48:46;100194.94;;;16.90;89.32
63439;BME280;49567;48.958;8.294;2022-10-16T02:51:11;100193.56;;;16.92;89.25
63439;BME280;49567;48.958;8.294;2022-10-16T02:53:36;100191.09;;;16.91;89.21
63439;BME280;49567;48.958;8.294;2022-10-16T02:56:02;100202.88;;;16.91;89.20
63439;BME280;49567;48.958;8.294;2022-10-16T02:58:27;100208.34;;;16.91;89.15
63439;BME280;49567;48.958;8.294;2022-10-16T03:00:52;100212.19;;;16.90;89.11
63439;BME280;49567;48.958;8.294;2022-10-16T03:03:17;100214.94;;;16.90;89.24
63439;BME280;49567;48.958;8.294;2022-10-16T03:05:43;100211.91;;;16.92;89.09
63439;BME280;49567;48.958;8.294;2022-10-16T03:08:11;100210.78;;;16.93;89.02
63439;BME280;49567;48.958;8.294;2022-10-16T03:10:36;100215.97;;;16.94;88.92
63439;BME280;49567;48.958;8.294;2022-10-16T03:13:01;100210.50;;;16.94;88.89
63439;BME280;49567;48.958;8.294;2022-10-16T03:15:27;100209.16;;;16.92;88.96
63439;BME280;49567;48.958;8.294;2022-10-16T03:17:54;100202.88;;;16.91;89.07
63439;BME280;49567;48.958;8.294;2022-10-16T03:20:19;100206.44;;;16.92;89.11
63439;BME280;49567;48.958;8.294;2022-10-16T03:22:44;100202.88;;;16.91;89.07
63439;BME280;49567;48.958;8.294;2022-10-16T03:25:09;100196.31;;;16.92;89.28
63439;BME280;49567;48.958;8.294;2022-10-16T03:27:35;100204.53;;;16.92;88.99
63439;BME280;49567;48.958;8.294;2022-10-16T03:30:00;100204.53;;;16.92;89.04
63439;BME280;49567;48.958;8.294;2022-10-16T03:32:25;100197.91;;;16.93;89.06
63439;BME280;49567;48.958;8.294;2022-10-16T03:34:50;100204.22;;;16.94;89.03
63439;BME280;49567;48.958;8.294;2022-10-16T03:37:18;100208.03;;;16.93;89.08
63439;BME280;49567;48.958;8.294;2022-10-16T03:39:43;100211.91;;;16.92;89.18
63439;BME280;49567;48.958;8.294;2022-10-16T03:42:08;100212.72;;;16.92;89.14
63439;BME280;49567;48.958;8.294;2022-10-16T03:44:33;100222.31;;;16.90;89.15
63439;BME280;49567;48.958;8.294;2022-10-16T03:46:59;100215.47;;;16.92;89.14
63439;BME280;49567;48.958;8.294;2022-10-16T03:49:24;100214.94;;;16.90;88.97
63439;BME280;49567;48.958;8.294;2022-10-16T03:51:49;100209.44;;;16.90;89.08
63439;BME280;49567;48.958;8.294;2022-10-16T03:54:14;100205.91;;;16.90;89.08
63439;BME280;49567;48.958;8.294;2022-10-16T03:56:40;100210.84;;;16.88;89.14
63439;BME280;49567;48.958;8.294;2022-10-16T03:59:05;100209.53;;;16.85;89.19
63439;BME280;49567;48.958;8.294;2022-10-16T04:01:30;100213.63;;;16.83;89.14
63439;BME280;49567;48.958;8.294;2022-10-16T04:03:55;100210.91;;;16.83;89.06
63439;BME280;49567;48.958;8.294;2022-10-16T04:06:21;100211.22;;;16.81;89.11
63439;BME280;49567;48.958;8.294;2022-10-16T04:08:46;100213.34;;;16.84;89.00
63439;BME280;49567;48.958;8.294;2022-10-16T04:11:11;100211.44;;;16.85;88.98
63439;BME280;49567;48.958;8.294;2022-10-16T04:13:37;100219.94;;;16.83;88.90
63439;BME280;49567;48.958;8.294;2022-10-16T04:16:02;100223.81;;;16.82;88.96
63439;BME280;49567;48.958;8.294;2022-10-16T04:18:27;100228.44;;;16.82;89.08
63439;BME280;49567;48.958;8.294;2022-10-16T04:20:54;100226.81;;;16.81;89.00
63439;BME280;49567;48.958;8.294;2022-10-16T04:23:20;100226.81;;;16.81;89.19
63439;BME280;49567;48.958;8.294;2022-10-16T04:25:45;100231.19;;;16.82;89.18
63439;BME280;49567;48.958;8.294;2022-10-16T04:28:10;100244.06;;;16.81;89.09
63439;BME280;49567;48.958;8.294;2022-10-16T04:30:38;100248.72;;;16.81;89.18
63439;BME280;49567;48.958;8.294;2022-10-16T04:33:03;100249.00;;;16.79;89.12
63439;BME280;49567;48.958;8.294;2022-10-16T04:35:29;100248.19;;;16.79;89.22
63439;BME280;49567;48.958;8.294;2022-10-16T04:37:57;100252.84;;;16.78;89.15
63439;BME280;49567;48.958;8.294;2022-10-16T04:40:25;100254.50;;;16.79;89.22
63439;BME280;49567;48.958;8.294;2022-10-16T04:42:51;100251.44;;;16.81;89.19
63439;BME280;49567;48.958;8.294;2022-10-16T04:45:16;100252.25;;;16.81;89.02
63439;BME280;49567;48.958;8.294;2022-10-16T04:47:47;100239.97;;;16.79;89.23
63439;BME280;49567;48.958;8.294;2022-10-16T04:50:12;100250.63;;;16.80;89.24
63439;BME280;49567;48.958;8.294;2022-10-16T04:52:37;100256.09;;;16.80;89.30
63439;BME280;49567;48.958;8.294;2022-10-16T04:55:03;100255.59;;;16.78;89.36
63439;BME280;49567;48.958;8.294;2022-10-16T04:57:29;100263.78;;;16.78;89.36
63439;BME280;49567;48.958;8.294;2022-10-16T04:59:54;100266.53;;;16.78;89.35
63439;BME280;49567;48.958;8.294;2022-10-16T05:02:20;100264.31;;;16.80;89.38
63439;BME280;49567;48.958;8.294;2022-10-16T05:04:45;100266.22;;;16.80;89.28
63439;BME280;49567;48.958;8.294;2022-10-16T05:07:11;100258.00;;;16.80;89.31
63439;BME280;49567;48.958;8.294;2022-10-16T05:09:36;100259.66;;;16.81;89.23
63439;BME280;49567;48.958;8.294;2022-10-16T05:12:01;100264.31;;;16.80;89.14
63439;BME280;49567;48.958;8.294;2022-10-16T05:14:27;100259.66;;;16.81;89.10
63439;BME280;49567;48.958;8.294;2022-10-16T05:16:53;100266.22;;;16.80;89.10
63439;BME280;49567;48.958;8.294;2022-10-16T05:19:20;100259.13;;;16.79;88.98
63439;BME280;49567;48.958;8.294;2022-10-16T05:21:45;100267.63;;;16.77;89.05
63439;BME280;49567;48.958;8.294;2022-10-16T05:24:11;100267.34;;;16.79;88.62
63439;BME280;49567;48.958;8.294;2022-10-16T05:26:36;100269.25;;;16.78;88.46
63439;BME280;49567;48.958;8.294;2022-10-16T05:29:01;100267.13;;;16.75;88.77
63439;BME280;49567;48.958;8.294;2022-10-16T05:31:28;100272.88;;;16.74;88.99
63439;BME280;49567;48.958;8.294;2022-10-16T05:33:58;100273.16;;;16.72;89.10
63439;BME280;49567;48.958;8.294;2022-10-16T05:36:23;100281.66;;;16.71;89.18
63439;BME280;49567;48.958;8.294;2022-10-16T05:38:50;100275.34;;;16.70;89.17
63439;BME280;49567;48.958;8.294;2022-10-16T05:41:15;100280.00;;;16.70;89.09
63439;BME280;49567;48.958;8.294;2022-10-16T05:43:46;100289.03;;;16.70;89.12
63439;BME280;49567;48.958;8.294;2022-10-16T05:46:11;100291.25;;;16.68;89.22
63439;BME280;49567;48.958;8.294;2022-10-16T05:48:36;100274.03;;;16.68;89.06
63439;BME280;49567;48.958;8.294;2022-10-16T05:51:04;100275.66;;;16.69;89.26
63439;BME280;49567;48.958;8.294;2022-10-16T05:53:32;100276.53;;;16.64;89.48
63439;BME280;49567;48.958;8.294;2022-10-16T05:55:58;100273.78;;;16.64;89.46
63439;BME280;49567;48.958;8.294;2022-10-16T05:58:24;100279.56;;;16.63;89.42
63439;BME280;49567;48.958;8.294;2022-10-16T06:00:55;100283.41;;;16.62;89.42
63439;BME280;49567;48.958;8.294;2022-10-16T06:03:21;100284.44;;;16.66;89.21
63439;BME280;49567;48.958;8.294;2022-10-16T06:05:47;100290.75;;;16.66;89.23
63439;BME280;49567;48.958;8.294;2022-10-16T06:08:12;100305.53;;;16.65;89.21
63439;BME280;49567;48.958;8.294;2022-10-16T06:10:37;100307.16;;;16.66;89.08
63439;BME280;49567;48.958;8.294;2022-10-16T06:13:02;100301.38;;;16.68;89.20
63439;BME280;49567;48.958;8.294;2022-10-16T06:15:28;100291.78;;;16.70;89.00
63439;BME280;49567;48.958;8.294;2022-10-16T06:17:53;100286.31;;;16.70;88.99
63439;BME280;49567;48.958;8.294;2022-10-16T06:20:18;100283.88;;;16.69;88.99
63439;BME280;49567;48.958;8.294;2022-10-16T06:22:43;100289.34;;;16.69;89.01
63439;BME280;49567;48.958;8.294;2022-10-16T06:25:09;100292.59;;;16.71;88.91
63439;BME280;49567;48.958;8.294;2022-10-16T06:27:34;100296.44;;;16.70;89.09
63439;BME280;49567;48.958;8.294;2022-10-16T06:29:59;100301.88;;;16.75;88.97
63439;BME280;49567;48.958;8.294;2022-10-16T06:32:24;100302.09;;;16.78;88.84
63439;BME280;49567;48.958;8.294;2022-10-16T06:34:50;100313.06;;;16.78;88.75
63439;BME280;49567;48.958;8.294;2022-10-16T06:37:15;100309.72;;;16.81;88.89
63439;BME280;49567;48.958;8.294;2022-10-16T06:39:40;100314.13;;;16.82;88.81
63439;BME280;49567;48.958;8.294;2022-10-16T06:42:05;100322.84;;;16.84;88.75
63439;BME280;49567;48.958;8.294;2022-10-16T06:44:31;100319.81;;;16.86;88.67
63439;BME280;49567;48.958;8.294;2022-10-16T06:46:56;100303.91;;;16.88;88.80
63439;BME280;49567;48.958;8.294;2022-10-16T06:49:21;100308.00;;;16.90;88.59
63439;BME280;49567;48.958;8.294;2022-10-16T06:51:48;100309.31;;;16.93;88.55
63439;BME280;49567;48.958;8.294;2022-10-16T06:54:14;100308.47;;;16.97;88.39
63439;BME280;49567;48.958;8.294;2022-10-16T06:56:40;100312.53;;;17.00;88.46
63439;BME280;49567;48.958;8.294;2022-10-16T06:59:05;100321.56;;;17.00;88.34
63439;BME280;49567;48.958;8.294;2022-10-16T07:01:31;100313.59;;;17.04;88.42
63439;BME280;49567;48.958;8.294;2022-10-16T07:03:56;100319.88;;;17.04;88.40
63439;BME280;49567;48.958;8.294;2022-10-16T07:06:24;100320.94;;;17.08;88.52
63439;BME280;49567;48.958;8.294;2022-10-16T07:08:49;100329.16;;;17.08;88.68
63439;BME280;49567;48.958;8.294;2022-10-16T07:11:17;100335.47;;;17.09;88.61
63439;BME280;49567;48.958;8.294;2022-10-16T07:13:44;100334.88;;;17.12;88.59
63439;BME280;49567;48.958;8.294;2022-10-16T07:16:15;100349.16;;;17.09;88.55
63439;BME280;49567;48.958;8.294;2022-10-16T07:18:41;100349.16;;;17.09;88.80
63439;BME280;49567;48.958;8.294;2022-10-16T07:23:36;100353.38;;;17.20;88.80
63439;BME280;49567;48.958;8.294;2022-10-16T07:26:02;100358.81;;;17.25;88.52
63439;BME280;49567;48.958;8.294;2022-10-16T07:28:28;100366.72;;;17.27;88.66
63439;BME280;49567;48.958;8.294;2022-10-16T07:30:54;100371.13;;;17.28;88.57
63439;BME280;49567;48.958;8.294;2022-10-16T07:33:19;100366.44;;;17.28;88.61
63439;BME280;49567;48.958;8.294;2022-10-16T07:35:52;100361.22;;;17.32;88.56
63439;BME280;49567;48.958;8.294;2022-10-16T07:38:18;100371.59;;;17.35;88.55
63439;BME280;49567;48.958;8.294;2022-10-16T07:40:43;100375.59;;;17.42;88.36
63439;BME280;49567;48.958;8.294;2022-10-16T07:43:09;100383.16;;;17.50;88.03
63439;BME280;49567;48.958;8.294;2022-10-16T07:45:34;100394.63;;;17.57;87.99
63439;BME280;49567;48.958;8.294;2022-10-16T07:47:59;100390.75;;;17.58;87.67
63439;BME280;49567;48.958;8.294;2022-10-16T07:50:25;100396.53;;;17.57;87.78
63439;BME280;49567;48.958;8.294;2022-10-16T07:52:53;100400.63;;;17.59;87.82
63439;BME280;49567;48.958;8.294;2022-10-16T07:55:18;100410.13;;;17.67;87.38
63439;BME280;49567;48.958;8.294;2022-10-16T07:57:43;100407.91;;;17.69;87.41
63439;BME280;49567;48.958;8.294;2022-10-16T08:00:09;100410.88;;;17.73;87.32
63439;BME280;49567;48.958;8.294;2022-10-16T08:02:39;100400.97;;;17.77;87.28
63439;BME280;49567;48.958;8.294;2022-10-16T08:05:05;100404.44;;;17.82;87.19
63439;BME280;49567;48.958;8.294;2022-10-16T08:07:31;100413.22;;;17.84;86.89
63439;BME280;49567;48.958;8.294;2022-10-16T08:09:56;100405.72;;;17.90;86.77
63439;BME280;49567;48.958;8.294;2022-10-16T08:12:23;100391.94;;;17.95;86.15
63439;BME280;49567;48.958;8.294;2022-10-16T08:14:48;100394.13;;;17.98;86.19
63439;BME280;49567;48.958;8.294;2022-10-16T08:17:14;100380.41;;;17.98;85.91
63439;BME280;49567;48.958;8.294;2022-10-16T08:19:44;100386.91;;;18.02;85.78
63439;BME280;49567;48.958;8.294;2022-10-16T08:22:09;100385.22;;;18.06;85.41
63439;BME280;49567;48.958;8.294;2022-10-16T08:24:34;100387.13;;;18.05;85.36
63439;BME280;49567;48.958;8.294;2022-10-16T08:27:02;100399.97;;;18.10;85.28
63439;BME280;49567;48.958;8.294;2022-10-16T08:29:27;100405.59;;;18.19;85.36
63439;BME280;49567;48.958;8.294;2022-10-16T08:31:52;100413.97;;;18.27;85.37
63439;BME280;49567;48.958;8.294;2022-10-16T08:34:18;100422.63;;;18.34;85.36
63439;BME280;49567;48.958;8.294;2022-10-16T08:36:43;100427.97;;;18.44;84.84
63439;BME280;49567;48.958;8.294;2022-10-16T08:39:08;100435.84;;;18.51;84.48
63439;BME280;49567;48.958;8.294;2022-10-16T08:44:30;100435.69;;;18.61;84.75
63439;BME280;49567;48.958;8.294;2022-10-16T08:47:16;100444.69;;;18.67;84.25
63439;BME280;49567;48.958;8.294;2022-10-16T08:49:52;100448.06;;;18.77;83.94
63439;BME280;49567;48.958;8.294;2022-10-16T08:52:18;100463.38;;;18.83;83.63
63439;BME280;49567;48.958;8.294;2022-10-16T08:54:47;100464.97;;;18.84;83.53
63439;BME280;49567;48.958;8.294;2022-10-16T08:57:23;100452.28;;;18.88;83.21
63439;BME280;49567;48.958;8.294;2022-10-16T08:59:49;100450.19;;;18.99;82.80
63439;BME280;49567;48.958;8.294;2022-10-16T09:02:59;100453.19;;;19.16;82.27
63439;BME280;49567;48.958;8.294;2022-10-16T09:08:25;100469.75;;;19.43;81.36
63439;BME280;49567;48.958;8.294;2022-10-16T09:11:01;100479.41;;;19.41;81.25
63439;BME280;49567;48.958;8.294;2022-10-16T09:14:03;100484.38;;;19.39;81.20
63439;BME280;49567;48.958;8.294;2022-10-16T09:16:37;100481.81;;;19.29;80.97
63439;BME280;49567;48.958;8.294;2022-10-16T09:19:32;100485.84;;;19.17;80.93
63439;BME280;49567;48.958;8.294;2022-10-16T09:22:10;100490.91;;;19.10;81.27
63439;BME280;49567;48.958;8.294;2022-10-16T09:24:37;100492.56;;;19.11;81.11
63439;BME280;49567;48.958;8.294;2022-10-16T09:27:03;100491.94;;;19.14;81.15
63439;BME280;49567;48.958;8.294;2022-10-16T09:29:28;100489.13;;;19.20;81.03
63439;BME280;49567;48.958;8.294;2022-10-16T09:31:54;100495.97;;;19.36;80.60
63439;BME280;49567;48.958;8.294;2022-10-16T09:34:31;100502.13;;;19.46;80.23
63439;BME280;49567;48.958;8.294;2022-10-16T09:36:58;100516.50;;;19.57;79.57
63439;BME280;49567;48.958;8.294;2022-10-16T09:39:24;100507.03;;;19.63;79.41
63439;BME280;49567;48.958;8.294;2022-10-16T09:41:50;100510.31;;;20.06;78.61
63439;BME280;49567;48.958;8.294;2022-10-16T09:44:28;100511.50;;;20.68;76.71
63439;BME280;49567;48.958;8.294;2022-10-16T09:47:23;100507.25;;;21.06;74.63
63439;BME280;49567;48.958;8.294;2022-10-16T09:49:57;100512.16;;;21.62;73.84
63439;BME280;49567;48.958;8.294;2022-10-16T09:52:26;100512.34;;;22.79;70.00
63439;BME280;49567;48.958;8.294;2022-10-16T09:57:19;100520.38;;;22.24;69.86
63439;BME280;49567;48.958;8.294;2022-10-16T09:59:56;100521.63;;;22.74;68.58
63439;BME280;49567;48.958;8.294;2022-10-16T10:02:36;100531.97;;;23.55;65.71
63439;BME280;49567;48.958;8.294;2022-10-16T10:05:05;100529.38;;;24.13;64.14
63439;BME280;49567;48.958;8.294;2022-10-16T10:07:33;100527.06;;;25.27;61.29
63439;BME280;49567;48.958;8.294;2022-10-16T10:10:04;100533.50;;;26.46;58.09
63439;BME280;49567;48.958;8.294;2022-10-16T10:12:31;100522.00;;;27.39;55.11
63439;BME280;49567;48.958;8.294;2022-10-16T10:15:04;100528.19;;;27.32;55.42
63439;BME280;49567;48.958;8.294;2022-10-16T10:17:31;100537.34;;;27.76;54.44
63439;BME280;49567;48.958;8.294;2022-10-16T10:19:58;100546.06;;;27.91;52.84
63439;BME280;49567;48.958;8.294;2022-10-16T10:22:44;100539.81;;;28.09;51.01
63439;BME280;49567;48.958;8.294;2022-10-16T10:25:18;100537.66;;;27.44;51.31
63439;BME280;49567;48.958;8.294;2022-10-16T10:30:39;100529.94;;;23.90;60.96
63439;BME280;49567;48.958;8.294;2022-10-16T10:33:25;100535.78;;;23.24;63.76
63439;BME280;49567;48.958;8.294;2022-10-16T10:36:02;100531.72;;;23.13;64.38
63439;BME280;49567;48.958;8.294;2022-10-16T10:38:55;100530.06;;;23.12;64.70
63439;BME280;49567;48.958;8.294;2022-10-16T10:41:33;100526.50;;;23.12;64.75
63439;BME280;49567;48.958;8.294;2022-10-16T10:44:22;100529.94;;;23.00;65.36
63439;BME280;49567;48.958;8.294;2022-10-16T10:46:57;100531.53;;;22.93;65.43
63439;BME280;49567;48.958;8.294;2022-10-16T10:55:41;100540.94;;;22.66;65.92
63439;BME280;49567;48.958;8.294;2022-10-16T11:01:11;100544.28;;;22.29;66.65
63439;BME280;49567;48.958;8.294;2022-10-16T11:06:32;100536.50;;;22.39;66.88
63439;BME280;49567;48.958;8.294;2022-10-16T11:09:06;100531.31;;;22.38;66.48
63439;BME280;49567;48.958;8.294;2022-10-16T11:11:39;100537.16;;;22.53;65.78
63439;BME280;49567;48.958;8.294;2022-10-16T11:14:26;100538.53;;;22.73;65.94
63439;BME280;49567;48.958;8.294;2022-10-16T11:16:58;100534.81;;;22.78;65.20
63439;BME280;49567;48.958;8.294;2022-10-16T11:19:35;100531.53;;;22.75;64.92
63439;BME280;49567;48.958;8.294;2022-10-16T11:22:39;100533.19;;;22.68;65.59
63439;BME280;49567;48.958;8.294;2022-10-16T11:25:13;100524.22;;;22.80;65.21
63439;BME280;49567;48.958;8.294;2022-10-16T11:27:43;100518.56;;;22.85;64.00
63439;BME280;49567;48.958;8.294;2022-10-16T11:30:20;100516.28;;;22.87;64.25
63439;BME280;49567;48.958;8.294;2022-10-16T11:33:04;100510.56;;;22.83;64.80
63439;BME280;49567;48.958;8.294;2022-10-16T11:38:10;100508.13;;;22.64;65.65
63439;BME280;49567;48.958;8.294;2022-10-16T11:40:38;100511.06;;;22.68;65.11
63439;BME280;49567;48.958;8.294;2022-10-16T11:46:10;100507.81;;;22.83;64.93
63439;BME280;49567;48.958;8.294;2022-10-16T11:48:49;100511.06;;;22.94;64.30
63439;BME280;49567;48.958;8.294;2022-10-16T11:51:42;100513.47;;;23.12;63.46
63439;BME280;49567;48.958;8.294;2022-10-16T11:54:21;100506.50;;;23.23;63.39
63439;BME280;49567;48.958;8.294;2022-10-16T11:56:49;100519.84;;;23.21;63.50
63439;BME280;49567;48.958;8.294;2022-10-16T12:04:36;100517.09;;;23.04;63.51
63439;BME280;49567;48.958;8.294;2022-10-16T12:07:13;100514.00;;;23.14;63.38
63439;BME280;49567;48.958;8.294;2022-10-16T12:09:40;100509.78;;;23.08;63.06
63439;BME280;49567;48.958;8.294;2022-10-16T12:12:37;100509.44;;;22.93;63.06
63439;BME280;49567;48.958;8.294;2022-10-16T12:17:45;100513.31;;;22.66;63.90
63439;BME280;49567;48.958;8.294;2022-10-16T12:22:36;100502.09;;;22.54;64.05
63439;BME280;49567;48.958;8.294;2022-10-16T12:25:01;100500.94;;;22.46;64.28
63439;BME280;49567;48.958;8.294;2022-10-16T12:27:31;100498.69;;;22.48;63.92
63439;BME280;49567;48.958;8.294;2022-10-16T12:30:02;100497.03;;;22.47;64.13
63439;BME280;49567;48.958;8.294;2022-10-16T12:32:38;100499.50;;;22.49;63.53
63439;BME280;49567;48.958;8.294;2022-10-16T12:35:16;100498.50;;;22.53;63.13
63439;BME280;49567;48.958;8.294;2022-10-16T12:37:44;100490.88;;;22.50;62.41
63439;BME280;49567;48.958;8.294;2022-10-16T12:40:22;100494.94;;;22.53;62.75
63439;BME280;49567;48.958;8.294;2022-10-16T12:42:49;100496.22;;;22.47;63.47
63439;BME280;49567;48.958;8.294;2022-10-16T12:45:28;100502.09;;;22.45;63.45
63439;BME280;49567;48.958;8.294;2022-10-16T12:47:55;100493.94;;;22.40;63.53
63439;BME280;49567;48.958;8.294;2022-10-16T12:52:50;100504.03;;;22.45;62.48
63439;BME280;49567;48.958;8.294;2022-10-16T12:55:18;100504.16;;;22.40;62.84
63439;BME280;49567;48.958;8.294;2022-10-16T13:00:44;100506.44;;;22.29;63.37
63439;BME280;49567;48.958;8.294;2022-10-16T13:03:47;100509.63;;;22.14;64.41
63439;BME280;49567;48.958;8.294;2022-10-16T13:06:46;100509.91;;;21.95;65.02
63439;BME280;49567;48.958;8.294;2022-10-16T13:14:46;100514.28;;;21.65;66.10
63439;BME280;49567;48.958;8.294;2022-10-16T13:17:47;100512.53;;;21.69;66.02
63439;BME280;49567;48.958;8.294;2022-10-16T13:20:36;100514.97;;;21.71;65.79
63439;BME280;49567;48.958;8.294;2022-10-16T13:23:43;100508.63;;;21.70;65.13
63439;BME280;49567;48.958;8.294;2022-10-16T13:26:41;100508.97;;;21.69;65.13
63439;BME280;49567;48.958;8.294;2022-10-16T13:29:09;100507.66;;;21.66;65.25
63439;BME280;49567;48.958;8.294;2022-10-16T13:31:37;100501.13;;;21.62;64.93
63439;BME280;49567;48.958;8.294;2022-10-16T13:34:05;100502.22;;;21.53;65.40
63439;BME280;49567;48.958;8.294;2022-10-16T13:36:42;100497.47;;;21.45;65.24
63439;BME280;49567;48.958;8.294;2022-10-16T13:39:20;100490.66;;;21.42;65.72
63439;BME280;49567;48.958;8.294;2022-10-16T13:42:06;100495.97;;;21.39;66.79
63439;BME280;49567;48.958;8.294;2022-10-16T13:44:50;100487.84;;;21.34;66.72
63439;BME280;49567;48.958;8.294;2022-10-16T13:47:23;100496.25;;;21.29;67.01
63439;BME280;49567;48.958;8.294;2022-10-16T13:50:03;100500.75;;;21.25;67.85
63439;BME280;49567;48.958;8.294;2022-10-16T13:52:29;100504.31;;;21.25;67.72
63439;BME280;49567;48.958;8.294;2022-10-16T13:54:55;100506.06;;;21.21;67.75
63439;BME280;49567;48.958;8.294;2022-10-16T13:57:22;100497.94;;;21.16;67.89
63439;BME280;49567;48.958;8.294;2022-10-16T13:59:48;100497.75;;;21.12;67.89
63439;BME280;49567;48.958;8.294;2022-10-16T14:02:33;100498.66;;;21.08;68.16
63439;BME280;49567;48.958;8.294;2022-10-16T14:05:01;100507.25;;;21.06;68.75
63439;BME280;49567;48.958;8.294;2022-10-16T14:07:29;100512.44;;;21.08;69.08